sensor_id;sensor_type;location;lat;lon;timestamp;P1;durP1;ratioP1;P2;durP2;ratioP2
48987;SDS011;34799;51.440;-2.534;2023-01-01T00:02:00;11.02;;;3.55;;
48987;SDS011;34799;51.440;-2.534;2023-01-01T00:04:27;21.20;;;5.38;;
48987;SDS011;34799;51.440;-2.534;2023-01-01T00:06:54;13.70;;;5.10;;
48987;SDS011;34799;51.440;-2.534;2023-01-01T00:09:22;20.60;;;6.03;;
48987;SDS011;34799;51.440;-2.534;2023-01-01T00:12:07;15.00;;;5.28;;
48987;SDS011;34799;51.440;-2.534;2023-01-01T00:14:34;17.88;;;7.45;;
48987;SDS011;34799;51.440;-2.534;2023-01-01T00:17:03;15.93;;;5.97;;
48987;SDS011;34799;51.440;-2.534;2023-01-01T00:19:30;13.00;;;5.95;;
48987;SDS011;34799;51.440;-2.534;2023-01-01T00:21:57;8.82;;;3.63;;
48987;SDS011;34799;51.440;-2.534;2023-01-01T00:24:25;10.40;;;4.10;;
48987;SDS011;34799;51.440;-2.534;2023-01-01T00:26:52;7.88;;;3.20;;
48987;SDS011;34799;51.440;-2.534;2023-01-01T00:29:19;10.95;;;1.48;;
48987;SDS011;34799;51.440;-2.534;2023-01-01T00:31:47;6.60;;;0.90;;
48987;SDS011;34799;51.440;-2.534;2023-01-01T00:34:14;8.63;;;1.08;;
48987;SDS011;34799;51.440;-2.534;2023-01-01T00:36:41;9.60;;;1.65;;
48987;SDS011;34799;51.440;-2.534;2023-01-01T00:39:08;11.10;;;0.82;;
48987;SDS011;34799;51.440;-2.534;2023-01-01T00:41:35;6.68;;;0.93;;
48987;SDS011;34799;51.440;-2.534;2023-01-01T00:44:02;6.95;;;1.38;;
48987;SDS011;34799;51.440;-2.534;2023-01-01T00:46:29;5.78;;;0.80;;
48987;SDS011;34799;51.440;-2.534;2023-01-01T00:48:58;4.93;;;0.57;;
48987;SDS011;34799;51.440;-2.534;2023-01-01T00:51:25;8.95;;;0.80;;
48987;SDS011;34799;51.440;-2.534;2023-01-01T00:53:53;8.93;;;0.75;;
48987;SDS011;34799;51.440;-2.534;2023-01-01T00:56:20;11.02;;;0.80;;
48987;SDS011;34799;51.440;-2.534;2023-01-01T00:58:47;5.13;;;0.52;;
48987;SDS011;34799;51.440;-2.534;2023-01-01T01:01:16;5.68;;;0.90;;
48987;SDS011;34799;51.440;-2.534;2023-01-01T01:03:43;9.48;;;0.43;;
48987;SDS011;34799;51.440;-2.534;2023-01-01T01:06:10;6.80;;;1.30;;
48987;SDS011;34799;51.440;-2.534;2023-01-01T01:08:39;12.52;;;0.90;;
48987;SDS011;34799;51.440;-2.534;2023-01-01T01:11:15;9.95;;;0.60;;
48987;SDS011;34799;51.440;-2.534;2023-01-01T01:13:45;8.05;;;0.95;;
48987;SDS011;34799;51.440;-2.534;2023-01-01T01:18:56;7.80;;;0.90;;
48987;SDS011;34799;51.440;-2.534;2023-01-01T01:21:27;9.63;;;1.67;;
48987;SDS011;34799;51.440;-2.534;2023-01-01T01:23:56;8.98;;;2.45;;
48987;SDS011;34799;51.440;-2.534;2023-01-01T01:26:26;9.30;;;1.17;;
48987;SDS011;34799;51.440;-2.534;2023-01-01T01:28:55;9.00;;;0.80;;
48987;SDS011;34799;51.440;-2.534;2023-01-01T01:31:23;13.48;;;1.08;;
48987;SDS011;34799;51.440;-2.534;2023-01-01T01:33:53;4.95;;;1.15;;
48987;SDS011;34799;51.440;-2.534;2023-01-01T01:36:23;13.15;;;0.90;;
48987;SDS011;34799;51.440;-2.534;2023-01-01T01:38:50;11.88;;;1.20;;
48987;SDS011;34799;51.440;-2.534;2023-01-01T01:41:19;10.48;;;2.13;;
48987;SDS011;34799;51.440;-2.534;2023-01-01T01:46:31;10.50;;;1.58;;
48987;SDS011;34799;51.440;-2.534;2023-01-01T01:49:09;9.30;;;0.83;;
48987;SDS011;34799;51.440;-2.534;2023-01-01T01:51:44;10.82;;;1.05;;
48987;SDS011;34799;51.440;-2.534;2023-01-01T01:54:13;10.13;;;1.60;;
48987;SDS011;34799;51.440;-2.534;2023-01-01T01:56:46;10.52;;;1.48;;
48987;SDS011;34799;51.440;-2.534;2023-01-01T01:59:19;12.00;;;1.13;;
48987;SDS011;34799;51.440;-2.534;2023-01-01T02:01:47;11.80;;;1.80;;
48987;SDS011;34799;51.440;-2.534;2023-01-01T02:04:14;11.93;;;1.20;;
48987;SDS011;34799;51.440;-2.534;2023-01-01T02:06:42;13.68;;;0.93;;
48987;SDS011;34799;51.440;-2.534;2023-01-01T02:09:11;8.15;;;0.90;;
48987;SDS011;34799;51.440;-2.534;2023-01-01T02:11:39;12.27;;;1.23;;
48987;SDS011;34799;51.440;-2.534;2023-01-01T02:14:06;12.18;;;1.52;;
48987;SDS011;34799;51.440;-2.534;2023-01-01T02:16:42;13.80;;;1.05;;
48987;SDS011;34799;51.440;-2.534;2023-01-01T02:22:19;14.25;;;1.50;;
48987;SDS011;34799;51.440;-2.534;2023-01-01T02:30:40;11.38;;;0.77;;
48987;SDS011;34799;51.440;-2.534;2023-01-01T02:33:13;7.60;;;0.65;;
48987;SDS011;34799;51.440;-2.534;2023-01-01T02:36:00;15.15;;;1.50;;
48987;SDS011;34799;51.440;-2.534;2023-01-01T02:38:35;11.15;;;1.48;;
48987;SDS011;34799;51.440;-2.534;2023-01-01T02:41:08;13.13;;;1.35;;
48987;SDS011;34799;51.440;-2.534;2023-01-01T02:43:39;11.98;;;0.93;;
48987;SDS011;34799;51.440;-2.534;2023-01-01T02:46:09;10.07;;;0.88;;
48987;SDS011;34799;51.440;-2.534;2023-01-01T02:48:39;9.25;;;0.70;;
48987;SDS011;34799;51.440;-2.534;2023-01-01T03:02:51;11.27;;;1.48;;
48987;SDS011;34799;51.440;-2.534;2023-01-01T03:08:53;8.27;;;1.02;;
48987;SDS011;34799;51.440;-2.534;2023-01-01T03:18:02;10.33;;;1.80;;
48987;SDS011;34799;51.440;-2.534;2023-01-01T03:20:39;9.75;;;1.10;;
48987;SDS011;34799;51.440;-2.534;2023-01-01T03:23:16;12.52;;;1.10;;
48987;SDS011;34799;51.440;-2.534;2023-01-01T03:26:21;10.73;;;0.95;;
48987;SDS011;34799;51.440;-2.534;2023-01-01T03:29:10;9.27;;;0.70;;
48987;SDS011;34799;51.440;-2.534;2023-01-01T03:31:45;14.65;;;1.73;;
48987;SDS011;34799;51.440;-2.534;2023-01-01T03:34:24;17.77;;;1.02;;
48987;SDS011;34799;51.440;-2.534;2023-01-01T03:37:23;19.58;;;1.77;;
48987;SDS011;34799;51.440;-2.534;2023-01-01T03:40:08;11.95;;;1.15;;
48987;SDS011;34799;51.440;-2.534;2023-01-01T03:42:51;10.18;;;0.90;;
48987;SDS011;34799;51.440;-2.534;2023-01-01T03:45:31;19.88;;;1.40;;
48987;SDS011;34799;51.440;-2.534;2023-01-01T03:48:13;16.92;;;1.48;;
48987;SDS011;34799;51.440;-2.534;2023-01-01T03:50:59;14.45;;;1.38;;
48987;SDS011;34799;51.440;-2.534;2023-01-01T04:00:29;17.75;;;1.30;;
48987;SDS011;34799;51.440;-2.534;2023-01-01T04:03:17;11.02;;;1.33;;
48987;SDS011;34799;51.440;-2.534;2023-01-01T04:06:02;12.57;;;1.40;;
48987;SDS011;34799;51.440;-2.534;2023-01-01T04:08:31;12.93;;;0.80;;
48987;SDS011;34799;51.440;-2.534;2023-01-01T04:11:44;9.98;;;1.27;;
48987;SDS011;34799;51.440;-2.534;2023-01-01T04:15:02;7.65;;;0.55;;
48987;SDS011;34799;51.440;-2.534;2023-01-01T04:18:06;11.90;;;1.30;;
48987;SDS011;34799;51.440;-2.534;2023-01-01T04:20:39;8.30;;;0.70;;
48987;SDS011;34799;51.440;-2.534;2023-01-01T04:23:08;7.35;;;0.40;;
48987;SDS011;34799;51.440;-2.534;2023-01-01T04:25:55;5.60;;;0.55;;
48987;SDS011;34799;51.440;-2.534;2023-01-01T04:29:03;9.63;;;0.90;;
48987;SDS011;34799;51.440;-2.534;2023-01-01T04:31:51;7.32;;;0.63;;
48987;SDS011;34799;51.440;-2.534;2023-01-01T04:34:34;8.93;;;0.75;;
48987;SDS011;34799;51.440;-2.534;2023-01-01T04:37:29;10.32;;;1.05;;
48987;SDS011;34799;51.440;-2.534;2023-01-01T04:40:03;4.00;;;0.47;;
48987;SDS011;34799;51.440;-2.534;2023-01-01T04:46:31;6.30;;;0.70;;
48987;SDS011;34799;51.440;-2.534;2023-01-01T04:49:06;6.95;;;0.45;;
48987;SDS011;34799;51.440;-2.534;2023-01-01T04:51:39;5.65;;;1.35;;
48987;SDS011;34799;51.440;-2.534;2023-01-01T04:54:30;6.85;;;0.75;;
48987;SDS011;34799;51.440;-2.534;2023-01-01T04:57:17;7.60;;;0.30;;
48987;SDS011;34799;51.440;-2.534;2023-01-01T04:59:50;9.65;;;0.55;;
48987;SDS011;34799;51.440;-2.534;2023-01-01T05:02:39;8.85;;;0.85;;
48987;SDS011;34799;51.440;-2.534;2023-01-01T05:05:12;7.93;;;1.10;;
48987;SDS011;34799;51.440;-2.534;2023-01-01T05:07:44;11.35;;;1.00;;
48987;SDS011;34799;51.440;-2.534;2023-01-01T05:10:24;9.02;;;0.70;;
48987;SDS011;34799;51.440;-2.534;2023-01-01T05:13:19;10.13;;;1.08;;
48987;SDS011;34799;51.440;-2.534;2023-01-01T05:16:02;7.40;;;0.40;;
48987;SDS011;34799;51.440;-2.534;2023-01-01T05:18:51;4.43;;;0.35;;
48987;SDS011;34799;51.440;-2.534;2023-01-01T05:21:28;8.25;;;1.00;;
48987;SDS011;34799;51.440;-2.534;2023-01-01T05:24:21;7.40;;;0.35;;
48987;SDS011;34799;51.440;-2.534;2023-01-01T05:27:11;7.68;;;0.88;;
48987;SDS011;34799;51.440;-2.534;2023-01-01T05:29:57;6.50;;;0.88;;
48987;SDS011;34799;51.440;-2.534;2023-01-01T05:32:41;5.15;;;0.30;;
48987;SDS011;34799;51.440;-2.534;2023-01-01T05:35:39;9.10;;;0.80;;
48987;SDS011;34799;51.440;-2.534;2023-01-01T05:38:08;11.52;;;0.80;;
48987;SDS011;34799;51.440;-2.534;2023-01-01T05:40:46;16.77;;;1.48;;
48987;SDS011;34799;51.440;-2.534;2023-01-01T05:43:31;14.45;;;1.45;;
48987;SDS011;34799;51.440;-2.534;2023-01-01T05:46:15;13.63;;;2.75;;
48987;SDS011;34799;51.440;-2.534;2023-01-01T05:48:57;9.20;;;0.68;;
48987;SDS011;34799;51.440;-2.534;2023-01-01T05:52:03;5.68;;;0.50;;
48987;SDS011;34799;51.440;-2.534;2023-01-01T05:59:02;10.80;;;0.57;;
48987;SDS011;34799;51.440;-2.534;2023-01-01T06:02:21;8.57;;;0.50;;
48987;SDS011;34799;51.440;-2.534;2023-01-01T06:05:38;13.82;;;0.82;;
48987;SDS011;34799;51.440;-2.534;2023-01-01T06:12:30;14.13;;;1.10;;
48987;SDS011;34799;51.440;-2.534;2023-01-01T06:15:43;7.78;;;1.23;;
48987;SDS011;34799;51.440;-2.534;2023-01-01T06:19:05;14.15;;;1.13;;
48987;SDS011;34799;51.440;-2.534;2023-01-01T06:22:07;15.52;;;1.60;;
48987;SDS011;34799;51.440;-2.534;2023-01-01T06:25:31;15.07;;;0.88;;
48987;SDS011;34799;51.440;-2.534;2023-01-01T06:32:45;14.80;;;1.38;;
48987;SDS011;34799;51.440;-2.534;2023-01-01T06:35:51;16.02;;;1.67;;
48987;SDS011;34799;51.440;-2.534;2023-01-01T06:38:59;15.43;;;1.50;;
48987;SDS011;34799;51.440;-2.534;2023-01-01T06:42:31;17.05;;;2.35;;
48987;SDS011;34799;51.440;-2.534;2023-01-01T06:45:34;20.00;;;2.58;;
48987;SDS011;34799;51.440;-2.534;2023-01-01T06:53:11;17.10;;;1.02;;
48987;SDS011;34799;51.440;-2.534;2023-01-01T06:57:24;9.73;;;1.05;;
48987;SDS011;34799;51.440;-2.534;2023-01-01T07:01:21;13.48;;;1.33;;
48987;SDS011;34799;51.440;-2.534;2023-01-01T07:05:15;15.02;;;1.15;;
48987;SDS011;34799;51.440;-2.534;2023-01-01T07:13:24;10.23;;;0.73;;
48987;SDS011;34799;51.440;-2.534;2023-01-01T07:16:15;14.35;;;1.33;;
48987;SDS011;34799;51.440;-2.534;2023-01-01T07:19:30;14.90;;;1.95;;
48987;SDS011;34799;51.440;-2.534;2023-01-01T07:25:54;11.80;;;1.27;;
48987;SDS011;34799;51.440;-2.534;2023-01-01T07:29:36;12.63;;;1.30;;
48987;SDS011;34799;51.440;-2.534;2023-01-01T07:32:57;9.75;;;0.65;;
48987;SDS011;34799;51.440;-2.534;2023-01-01T07:36:09;9.20;;;0.90;;
48987;SDS011;34799;51.440;-2.534;2023-01-01T07:39:02;12.57;;;0.93;;
48987;SDS011;34799;51.440;-2.534;2023-01-01T07:53:43;13.05;;;1.33;;
48987;SDS011;34799;51.440;-2.534;2023-01-01T07:56:10;20.17;;;2.15;;
48987;SDS011;34799;51.440;-2.534;2023-01-01T07:58:38;16.98;;;1.52;;
48987;SDS011;34799;51.440;-2.534;2023-01-01T08:01:10;14.18;;;1.30;;
48987;SDS011;34799;51.440;-2.534;2023-01-01T08:03:38;13.38;;;0.95;;
48987;SDS011;34799;51.440;-2.534;2023-01-01T08:06:10;13.70;;;1.30;;
48987;SDS011;34799;51.440;-2.534;2023-01-01T08:08:38;11.68;;;1.92;;
48987;SDS011;34799;51.440;-2.534;2023-01-01T08:11:06;6.78;;;0.88;;
48987;SDS011;34799;51.440;-2.534;2023-01-01T08:13:35;16.77;;;1.73;;
48987;SDS011;34799;51.440;-2.534;2023-01-01T08:16:04;14.05;;;1.20;;
48987;SDS011;34799;51.440;-2.534;2023-01-01T08:18:31;15.10;;;1.00;;
48987;SDS011;34799;51.440;-2.534;2023-01-01T08:20:59;19.63;;;1.92;;
48987;SDS011;34799;51.440;-2.534;2023-01-01T08:23:28;15.20;;;1.08;;
48987;SDS011;34799;51.440;-2.534;2023-01-01T08:25:58;15.43;;;1.40;;
48987;SDS011;34799;51.440;-2.534;2023-01-01T08:28:27;16.17;;;1.77;;
48987;SDS011;34799;51.440;-2.534;2023-01-01T08:30:55;17.75;;;1.48;;
48987;SDS011;34799;51.440;-2.534;2023-01-01T08:33:22;24.13;;;2.75;;
48987;SDS011;34799;51.440;-2.534;2023-01-01T08:35:50;21.25;;;2.45;;
48987;SDS011;34799;51.440;-2.534;2023-01-01T08:38:21;23.90;;;1.45;;
48987;SDS011;34799;51.440;-2.534;2023-01-01T08:40:48;15.48;;;1.88;;
48987;SDS011;34799;51.440;-2.534;2023-01-01T08:43:15;12.98;;;1.45;;
48987;SDS011;34799;51.440;-2.534;2023-01-01T08:45:42;14.43;;;2.10;;
48987;SDS011;34799;51.440;-2.534;2023-01-01T08:48:10;18.90;;;1.38;;
48987;SDS011;34799;51.440;-2.534;2023-01-01T08:50:39;18.40;;;1.55;;
48987;SDS011;34799;51.440;-2.534;2023-01-01T08:53:06;15.35;;;0.90;;
48987;SDS011;34799;51.440;-2.534;2023-01-01T08:55:33;15.15;;;2.05;;
48987;SDS011;34799;51.440;-2.534;2023-01-01T08:58:04;9.52;;;1.30;;
48987;SDS011;34799;51.440;-2.534;2023-01-01T09:00:32;14.80;;;1.50;;
48987;SDS011;34799;51.440;-2.534;2023-01-01T09:02:59;18.92;;;3.00;;
48987;SDS011;34799;51.440;-2.534;2023-01-01T09:05:26;15.60;;;2.08;;
48987;SDS011;34799;51.440;-2.534;2023-01-01T09:07:53;21.58;;;3.42;;
48987;SDS011;34799;51.440;-2.534;2023-01-01T09:10:20;13.40;;;1.73;;
48987;SDS011;34799;51.440;-2.534;2023-01-01T09:12:47;16.73;;;1.75;;
48987;SDS011;34799;51.440;-2.534;2023-01-01T09:15:15;12.77;;;1.42;;
48987;SDS011;34799;51.440;-2.534;2023-01-01T09:17:42;16.75;;;1.63;;
48987;SDS011;34799;51.440;-2.534;2023-01-01T09:20:10;19.42;;;1.92;;
48987;SDS011;34799;51.440;-2.534;2023-01-01T09:22:37;22.10;;;1.60;;
48987;SDS011;34799;51.440;-2.534;2023-01-01T09:25:04;20.02;;;2.72;;
48987;SDS011;34799;51.440;-2.534;2023-01-01T09:27:31;17.90;;;1.65;;
48987;SDS011;34799;51.440;-2.534;2023-01-01T09:29:59;12.70;;;1.52;;
48987;SDS011;34799;51.440;-2.534;2023-01-01T09:32:29;18.35;;;2.55;;
48987;SDS011;34799;51.440;-2.534;2023-01-01T09:34:56;23.77;;;2.83;;
48987;SDS011;34799;51.440;-2.534;2023-01-01T09:37:23;21.15;;;2.10;;
48987;SDS011;34799;51.440;-2.534;2023-01-01T09:39:51;21.15;;;1.77;;
48987;SDS011;34799;51.440;-2.534;2023-01-01T09:47:29;19.48;;;3.33;;
48987;SDS011;34799;51.440;-2.534;2023-01-01T09:50:07;27.63;;;2.72;;
48987;SDS011;34799;51.440;-2.534;2023-01-01T09:52:43;23.73;;;4.10;;
48987;SDS011;34799;51.440;-2.534;2023-01-01T09:55:19;22.00;;;2.47;;
48987;SDS011;34799;51.440;-2.534;2023-01-01T09:57:54;16.58;;;1.15;;
48987;SDS011;34799;51.440;-2.534;2023-01-01T10:00:23;14.68;;;1.65;;
48987;SDS011;34799;51.440;-2.534;2023-01-01T10:13:52;21.20;;;1.73;;
48987;SDS011;34799;51.440;-2.534;2023-01-01T10:16:00;15.02;;;1.20;;
48987;SDS011;34799;51.440;-2.534;2023-01-01T10:21:59;18.00;;;1.88;;
48987;SDS011;34799;51.440;-2.534;2023-01-01T10:27:22;15.38;;;2.05;;
48987;SDS011;34799;51.440;-2.534;2023-01-01T10:30:05;14.85;;;2.35;;
48987;SDS011;34799;51.440;-2.534;2023-01-01T10:32:47;14.73;;;1.95;;
48987;SDS011;34799;51.440;-2.534;2023-01-01T10:35:18;15.25;;;1.85;;
48987;SDS011;34799;51.440;-2.534;2023-01-01T10:37:52;15.52;;;1.83;;
48987;SDS011;34799;51.440;-2.534;2023-01-01T10:40:20;17.65;;;1.48;;
48987;SDS011;34799;51.440;-2.534;2023-01-01T10:42:49;16.38;;;1.70;;
48987;SDS011;34799;51.440;-2.534;2023-01-01T10:46:04;16.45;;;2.25;;
48987;SDS011;34799;51.440;-2.534;2023-01-01T11:01:23;31.23;;;2.72;;
48987;SDS011;34799;51.440;-2.534;2023-01-01T11:09:03;24.73;;;2.78;;
48987;SDS011;34799;51.440;-2.534;2023-01-01T11:12:03;27.00;;;2.20;;
48987;SDS011;34799;51.440;-2.534;2023-01-01T11:17:09;28.13;;;3.30;;
48987;SDS011;34799;51.440;-2.534;2023-01-01T11:19:37;15.13;;;1.80;;
48987;SDS011;34799;51.440;-2.534;2023-01-01T11:22:14;17.88;;;1.90;;
48987;SDS011;34799;51.440;-2.534;2023-01-01T11:25:55;23.92;;;2.60;;
48987;SDS011;34799;51.440;-2.534;2023-01-01T11:33:49;16.10;;;1.67;;
48987;SDS011;34799;51.440;-2.534;2023-01-01T11:38:50;27.20;;;3.42;;
48987;SDS011;34799;51.440;-2.534;2023-01-01T11:41:53;13.63;;;2.45;;
48987;SDS011;34799;51.440;-2.534;2023-01-01T11:46:57;15.75;;;1.98;;
48987;SDS011;34799;51.440;-2.534;2023-01-01T11:49:25;25.83;;;3.20;;
48987;SDS011;34799;51.440;-2.534;2023-01-01T11:51:56;20.20;;;1.98;;
48987;SDS011;34799;51.440;-2.534;2023-01-01T11:54:28;22.50;;;3.55;;
48987;SDS011;34799;51.440;-2.534;2023-01-01T11:57:12;21.15;;;1.92;;
48987;SDS011;34799;51.440;-2.534;2023-01-01T11:59:46;23.17;;;2.75;;
48987;SDS011;34799;51.440;-2.534;2023-01-01T12:02:22;23.88;;;1.73;;
48987;SDS011;34799;51.440;-2.534;2023-01-01T12:07:40;13.95;;;1.90;;
48987;SDS011;34799;51.440;-2.534;2023-01-01T12:10:18;22.33;;;3.20;;
48987;SDS011;34799;51.440;-2.534;2023-01-01T12:13:14;21.50;;;2.60;;
48987;SDS011;34799;51.440;-2.534;2023-01-01T12:15:51;22.98;;;2.20;;
48987;SDS011;34799;51.440;-2.534;2023-01-01T12:18:23;17.90;;;1.45;;
48987;SDS011;34799;51.440;-2.534;2023-01-01T12:23:42;21.23;;;1.67;;
48987;SDS011;34799;51.440;-2.534;2023-01-01T12:26:12;19.60;;;2.60;;
48987;SDS011;34799;51.440;-2.534;2023-01-01T12:34:55;15.77;;;2.03;;
48987;SDS011;34799;51.440;-2.534;2023-01-01T12:43:19;26.83;;;2.45;;
48987;SDS011;34799;51.440;-2.534;2023-01-01T12:49:10;21.25;;;2.95;;
48987;SDS011;34799;51.440;-2.534;2023-01-01T13:00:03;18.13;;;1.92;;
48987;SDS011;34799;51.440;-2.534;2023-01-01T13:02:42;22.67;;;2.67;;
48987;SDS011;34799;51.440;-2.534;2023-01-01T13:05:52;16.15;;;2.92;;
48987;SDS011;34799;51.440;-2.534;2023-01-01T13:08:14;18.38;;;3.30;;
48987;SDS011;34799;51.440;-2.534;2023-01-01T13:10:41;23.38;;;3.95;;
48987;SDS011;34799;51.440;-2.534;2023-01-01T13:13:11;22.48;;;4.47;;
48987;SDS011;34799;51.440;-2.534;2023-01-01T13:20:43;19.13;;;2.35;;
48987;SDS011;34799;51.440;-2.534;2023-01-01T13:37:24;33.20;;;6.88;;
48987;SDS011;34799;51.440;-2.534;2023-01-01T13:43:03;23.02;;;4.03;;
48987;SDS011;34799;51.440;-2.534;2023-01-01T13:45:28;17.98;;;2.70;;
48987;SDS011;34799;51.440;-2.534;2023-01-01T13:51:17;32.20;;;3.42;;
48987;SDS011;34799;51.440;-2.534;2023-01-01T13:54:25;28.00;;;3.40;;
48987;SDS011;34799;51.440;-2.534;2023-01-01T13:57:20;20.98;;;2.38;;
48987;SDS011;34799;51.440;-2.534;2023-01-01T14:00:03;32.08;;;4.50;;
48987;SDS011;34799;51.440;-2.534;2023-01-01T14:02:44;30.27;;;7.65;;
48987;SDS011;34799;51.440;-2.534;2023-01-01T14:05:34;21.70;;;4.78;;
48987;SDS011;34799;51.440;-2.534;2023-01-01T14:08:29;22.45;;;3.28;;
48987;SDS011;34799;51.440;-2.534;2023-01-01T14:10:58;25.35;;;3.20;;
48987;SDS011;34799;51.440;-2.534;2023-01-01T14:13:37;26.25;;;3.13;;
48987;SDS011;34799;51.440;-2.534;2023-01-01T14:16:07;32.85;;;3.45;;
48987;SDS011;34799;51.440;-2.534;2023-01-01T14:18:48;25.30;;;3.75;;
48987;SDS011;34799;51.440;-2.534;2023-01-01T14:21:19;22.98;;;2.90;;
48987;SDS011;34799;51.440;-2.534;2023-01-01T14:26:25;27.20;;;3.95;;
48987;SDS011;34799;51.440;-2.534;2023-01-01T14:28:55;22.13;;;2.30;;
48987;SDS011;34799;51.440;-2.534;2023-01-01T14:31:24;28.70;;;3.83;;
48987;SDS011;34799;51.440;-2.534;2023-01-01T14:33:55;31.92;;;13.07;;
48987;SDS011;34799;51.440;-2.534;2023-01-01T14:36:27;24.10;;;4.82;;
48987;SDS011;34799;51.440;-2.534;2023-01-01T14:38:58;24.20;;;4.88;;
48987;SDS011;34799;51.440;-2.534;2023-01-01T14:41:34;26.45;;;3.90;;
48987;SDS011;34799;51.440;-2.534;2023-01-01T14:44:11;36.35;;;4.40;;
48987;SDS011;34799;51.440;-2.534;2023-01-01T14:46:40;33.67;;;3.53;;
48987;SDS011;34799;51.440;-2.534;2023-01-01T14:49:10;26.08;;;4.32;;
48987;SDS011;34799;51.440;-2.534;2023-01-01T14:51:44;25.35;;;3.95;;
48987;SDS011;34799;51.440;-2.534;2023-01-01T14:54:18;24.65;;;4.45;;
48987;SDS011;34799;51.440;-2.534;2023-01-01T14:56:49;30.55;;;3.20;;
48987;SDS011;34799;51.440;-2.534;2023-01-01T14:59:20;32.33;;;4.18;;
48987;SDS011;34799;51.440;-2.534;2023-01-01T15:02:10;25.88;;;3.38;;
48987;SDS011;34799;51.440;-2.534;2023-01-01T15:04:40;27.70;;;3.53;;
48987;SDS011;34799;51.440;-2.534;2023-01-01T15:07:28;25.23;;;3.25;;
48987;SDS011;34799;51.440;-2.534;2023-01-01T15:09:57;32.00;;;4.20;;
48987;SDS011;34799;51.440;-2.534;2023-01-01T15:12:29;29.08;;;4.30;;
48987;SDS011;34799;51.440;-2.534;2023-01-01T15:14:59;39.75;;;9.52;;
48987;SDS011;34799;51.440;-2.534;2023-01-01T15:17:28;24.70;;;3.65;;
48987;SDS011;34799;51.440;-2.534;2023-01-01T15:22:49;22.77;;;3.97;;
48987;SDS011;34799;51.440;-2.534;2023-01-01T15:25:17;25.60;;;3.70;;
48987;SDS011;34799;51.440;-2.534;2023-01-01T15:27:51;22.20;;;3.10;;
48987;SDS011;34799;51.440;-2.534;2023-01-01T15:32:54;21.92;;;3.85;;
48987;SDS011;34799;51.440;-2.534;2023-01-01T15:35:30;19.70;;;2.42;;
48987;SDS011;34799;51.440;-2.534;2023-01-01T15:40:42;14.55;;;3.63;;
48987;SDS011;34799;51.440;-2.534;2023-01-01T15:43:13;27.42;;;3.67;;
48987;SDS011;34799;51.440;-2.534;2023-01-01T15:45:57;20.25;;;2.75;;
48987;SDS011;34799;51.440;-2.534;2023-01-01T15:48:52;26.33;;;3.05;;
48987;SDS011;34799;51.440;-2.534;2023-01-01T15:51:22;19.52;;;3.63;;
48987;SDS011;34799;51.440;-2.534;2023-01-01T15:53:58;25.67;;;3.58;;
48987;SDS011;34799;51.440;-2.534;2023-01-01T15:56:30;31.35;;;4.50;;
48987;SDS011;34799;51.440;-2.534;2023-01-01T15:59:02;29.23;;;3.33;;
48987;SDS011;34799;51.440;-2.534;2023-01-01T16:01:49;21.92;;;3.00;;
48987;SDS011;34799;51.440;-2.534;2023-01-01T16:04:24;21.13;;;2.90;;
48987;SDS011;34799;51.440;-2.534;2023-01-01T16:06:54;24.33;;;2.70;;
48987;SDS011;34799;51.440;-2.534;2023-01-01T16:09:24;16.17;;;3.45;;
48987;SDS011;34799;51.440;-2.534;2023-01-01T16:11:52;28.88;;;3.45;;
48987;SDS011;34799;51.440;-2.534;2023-01-01T16:14:20;23.95;;;3.25;;
48987;SDS011;34799;51.440;-2.534;2023-01-01T16:16:49;32.15;;;5.25;;
48987;SDS011;34799;51.440;-2.534;2023-01-01T16:19:22;20.92;;;2.80;;
48987;SDS011;34799;51.440;-2.534;2023-01-01T16:21:51;19.58;;;2.38;;
48987;SDS011;34799;51.440;-2.534;2023-01-01T16:24:18;8.50;;;1.25;;
48987;SDS011;34799;51.440;-2.534;2023-01-01T16:26:46;6.30;;;1.08;;
48987;SDS011;34799;51.440;-2.534;2023-01-01T16:29:14;7.57;;;0.90;;
48987;SDS011;34799;51.440;-2.534;2023-01-01T16:31:41;5.18;;;1.55;;
48987;SDS011;34799;51.440;-2.534;2023-01-01T16:34:10;8.82;;;1.13;;
48987;SDS011;34799;51.440;-2.534;2023-01-01T16:36:40;11.10;;;1.58;;
48987;SDS011;34799;51.440;-2.534;2023-01-01T16:39:07;7.28;;;0.80;;
48987;SDS011;34799;51.440;-2.534;2023-01-01T16:41:37;4.57;;;0.68;;
48987;SDS011;34799;51.440;-2.534;2023-01-01T16:44:06;5.30;;;0.63;;
48987;SDS011;34799;51.440;-2.534;2023-01-01T16:46:39;5.18;;;0.70;;
48987;SDS011;34799;51.440;-2.534;2023-01-01T16:49:07;7.15;;;0.93;;
48987;SDS011;34799;51.440;-2.534;2023-01-01T16:51:34;5.18;;;1.08;;
48987;SDS011;34799;51.440;-2.534;2023-01-01T16:54:02;4.20;;;0.90;;
48987;SDS011;34799;51.440;-2.534;2023-01-01T16:56:30;8.25;;;0.82;;
48987;SDS011;34799;51.440;-2.534;2023-01-01T16:58:57;4.47;;;0.85;;
48987;SDS011;34799;51.440;-2.534;2023-01-01T17:01:29;7.38;;;0.80;;
48987;SDS011;34799;51.440;-2.534;2023-01-01T17:03:56;7.80;;;1.00;;
48987;SDS011;34799;51.440;-2.534;2023-01-01T17:06:25;6.43;;;1.33;;
48987;SDS011;34799;51.440;-2.534;2023-01-01T17:08:52;3.08;;;0.75;;
48987;SDS011;34799;51.440;-2.534;2023-01-01T17:11:19;6.55;;;0.45;;
48987;SDS011;34799;51.440;-2.534;2023-01-01T17:13:48;4.93;;;0.60;;
48987;SDS011;34799;51.440;-2.534;2023-01-01T17:16:15;4.70;;;0.68;;
48987;SDS011;34799;51.440;-2.534;2023-01-01T17:18:48;9.88;;;0.70;;
48987;SDS011;34799;51.440;-2.534;2023-01-01T17:21:36;9.00;;;1.63;;
48987;SDS011;34799;51.440;-2.534;2023-01-01T17:24:04;11.15;;;0.77;;
48987;SDS011;34799;51.440;-2.534;2023-01-01T17:26:33;4.90;;;0.52;;
48987;SDS011;34799;51.440;-2.534;2023-01-01T17:29:00;7.90;;;0.60;;
48987;SDS011;34799;51.440;-2.534;2023-01-01T17:31:28;8.07;;;0.50;;
48987;SDS011;34799;51.440;-2.534;2023-01-01T17:33:55;4.88;;;0.32;;
48987;SDS011;34799;51.440;-2.534;2023-01-01T17:36:22;6.38;;;0.30;;
48987;SDS011;34799;51.440;-2.534;2023-01-01T17:38:50;4.45;;;0.60;;
48987;SDS011;34799;51.440;-2.534;2023-01-01T17:41:17;8.10;;;0.45;;
48987;SDS011;34799;51.440;-2.534;2023-01-01T17:43:45;10.95;;;0.90;;
48987;SDS011;34799;51.440;-2.534;2023-01-01T17:46:18;9.30;;;0.68;;
48987;SDS011;34799;51.440;-2.534;2023-01-01T17:48:47;5.93;;;1.20;;
48987;SDS011;34799;51.440;-2.534;2023-01-01T17:51:15;6.95;;;0.60;;
48987;SDS011;34799;51.440;-2.534;2023-01-01T17:53:44;4.88;;;0.52;;
48987;SDS011;34799;51.440;-2.534;2023-01-01T17:56:12;6.00;;;0.30;;
48987;SDS011;34799;51.440;-2.534;2023-01-01T17:58:41;5.28;;;0.98;;
48987;SDS011;34799;51.440;-2.534;2023-01-01T18:03:50;8.57;;;1.05;;
48987;SDS011;34799;51.440;-2.534;2023-01-01T18:06:22;6.28;;;0.55;;
48987;SDS011;34799;51.440;-2.534;2023-01-01T18:08:57;5.18;;;1.05;;
48987;SDS011;34799;51.440;-2.534;2023-01-01T18:11:26;5.05;;;0.80;;
48987;SDS011;34799;51.440;-2.534;2023-01-01T18:13:58;8.50;;;0.60;;
48987;SDS011;34799;51.440;-2.534;2023-01-01T18:16:30;4.57;;;0.40;;
48987;SDS011;34799;51.440;-2.534;2023-01-01T18:18:58;5.90;;;0.55;;
48987;SDS011;34799;51.440;-2.534;2023-01-01T18:21:26;6.60;;;0.88;;
48987;SDS011;34799;51.440;-2.534;2023-01-01T18:23:54;5.10;;;0.50;;
48987;SDS011;34799;51.440;-2.534;2023-01-01T18:26:23;2.63;;;0.63;;
48987;SDS011;34799;51.440;-2.534;2023-01-01T18:28:57;3.13;;;0.52;;
48987;SDS011;34799;51.440;-2.534;2023-01-01T18:31:26;5.90;;;0.50;;
48987;SDS011;34799;51.440;-2.534;2023-01-01T18:33:54;3.67;;;0.85;;
48987;SDS011;34799;51.440;-2.534;2023-01-01T18:36:24;4.70;;;0.52;;
48987;SDS011;34799;51.440;-2.534;2023-01-01T18:39:14;5.70;;;0.38;;
48987;SDS011;34799;51.440;-2.534;2023-01-01T18:44:17;5.07;;;0.40;;
48987;SDS011;34799;51.440;-2.534;2023-01-01T18:47:10;7.20;;;0.93;;
48987;SDS011;34799;51.440;-2.534;2023-01-01T18:49:39;5.05;;;1.08;;
48987;SDS011;34799;51.440;-2.534;2023-01-01T18:57:35;6.68;;;1.25;;